createdAt,value
2018-07-04T00:00:43.893Z,8.97
2018-07-04T00:03:23.956Z,8.13
2018-07-04T00:06:04.216Z,8.93
2018-07-04T00:08:44.328Z,8.60
2018-07-04T00:11:24.559Z,9.90
2018-07-04T00:14:04.638Z,14.40
2018-07-04T00:16:44.994Z,8.37
2018-07-04T00:19:25.025Z,8.30
2018-07-04T00:22:05.379Z,9.17
2018-07-04T00:24:45.432Z,9.07
2018-07-04T00:27:25.605Z,8.53
2018-07-04T00:30:05.744Z,8.97
2018-07-04T00:32:46.093Z,9.63
2018-07-04T00:35:26.186Z,8.20
2018-07-04T00:38:06.454Z,13.70
2018-07-04T00:40:46.679Z,8.20
2018-07-04T00:43:26.723Z,9.10
2018-07-04T00:46:06.961Z,15.70
2018-07-04T00:48:47.340Z,11.67
2018-07-04T00:51:27.380Z,9.55
2018-07-04T00:54:07.571Z,10.03
2018-07-04T00:56:47.872Z,8.53
2018-07-04T00:59:28.000Z,9.23
2018-07-04T01:02:08.210Z,8.70
2018-07-04T01:04:48.453Z,8.93
2018-07-04T01:07:28.589Z,9.40
2018-07-04T01:10:08.848Z,8.60
2018-07-04T01:12:49.056Z,8.53
2018-07-04T01:15:29.459Z,10.10
2018-07-04T01:18:09.720Z,9.03
2018-07-04T01:20:55.216Z,12.03
2018-07-04T01:23:35.284Z,9.50
2018-07-04T01:26:15.480Z,9.57
2018-07-04T01:28:55.645Z,9.37
2018-07-04T01:31:35.820Z,9.60
2018-07-04T01:34:15.908Z,10.00
2018-07-04T01:36:56.052Z,10.17
2018-07-04T01:39:36.186Z,10.87
2018-07-04T01:42:16.422Z,10.10
2018-07-04T01:44:56.721Z,8.97
2018-07-04T01:47:36.704Z,12.70
2018-07-04T01:50:17.066Z,11.47
2018-07-04T01:52:57.222Z,8.97
2018-07-04T01:55:37.446Z,10.17
2018-07-04T01:58:17.636Z,9.07
2018-07-04T02:00:57.866Z,11.13
2018-07-04T02:03:37.956Z,12.40
2018-07-04T02:06:18.150Z,10.63
2018-07-04T02:08:58.196Z,9.43
2018-07-04T02:11:38.298Z,9.60
2018-07-04T02:14:18.354Z,10.37
2018-07-04T02:16:58.473Z,12.63
2018-07-04T02:19:38.712Z,10.97
2018-07-04T02:22:18.964Z,11.03
2018-07-04T02:24:59.014Z,11.67
2018-07-04T02:27:39.238Z,10.30
2018-07-04T02:30:19.412Z,9.77
2018-07-04T02:32:59.432Z,10.20
2018-07-04T02:35:39.554Z,9.83
2018-07-04T02:38:19.691Z,13.43
2018-07-04T02:40:59.980Z,13.00
2018-07-04T02:43:40.227Z,13.30
2018-07-04T02:46:50.988Z,11.90
2018-07-04T02:49:30.972Z,11.33
2018-07-04T02:52:11.016Z,11.10
2018-07-04T02:54:51.086Z,13.00
2018-07-04T02:57:31.426Z,13.80
2018-07-04T03:00:11.662Z,12.98
2018-07-04T03:02:51.817Z,11.47
2018-07-04T03:05:32.054Z,12.23
2018-07-04T03:08:12.194Z,10.88
2018-07-04T03:10:52.238Z,10.13
2018-07-04T03:13:32.522Z,11.40
2018-07-04T03:16:12.626Z,10.87
2018-07-04T03:18:52.694Z,12.03
2018-07-04T03:21:32.962Z,9.87
2018-07-04T03:24:13.010Z,10.37
2018-07-04T03:26:53.354Z,11.10
2018-07-04T03:29:33.452Z,13.43
2018-07-04T03:32:13.753Z,10.35
2018-07-04T03:34:54.614Z,9.20
2018-07-04T03:37:34.817Z,10.23
2018-07-04T03:40:14.927Z,9.27
2018-07-04T03:42:55.025Z,8.90
2018-07-04T03:45:35.147Z,8.88
2018-07-04T03:48:15.439Z,8.97
2018-07-04T03:50:55.723Z,12.10
2018-07-04T03:53:35.918Z,10.33
2018-07-04T03:56:16.005Z,10.00
2018-07-04T03:58:56.257Z,9.00
2018-07-04T04:01:36.380Z,8.73
2018-07-04T04:04:16.642Z,8.43
2018-07-04T04:06:56.844Z,9.23
2018-07-04T04:09:37.081Z,11.23
2018-07-04T04:12:17.160Z,14.20
2018-07-04T04:14:57.335Z,11.40
2018-07-04T04:17:37.439Z,12.90
2018-07-04T04:20:17.671Z,10.10
2018-07-04T04:22:57.797Z,12.20
2018-07-04T04:25:37.958Z,13.72
2018-07-04T04:28:18.177Z,11.67
2018-07-04T04:30:58.265Z,11.30
2018-07-04T04:33:38.555Z,12.18
2018-07-04T04:36:18.747Z,13.13
2018-07-04T04:38:58.859Z,11.60
2018-07-04T04:41:38.963Z,12.07
2018-07-04T04:44:19.154Z,11.80
2018-07-04T04:46:59.579Z,10.20
2018-07-04T04:49:39.728Z,16.07
2018-07-04T04:52:20.215Z,9.93
2018-07-04T04:55:00.275Z,12.03
2018-07-04T04:57:40.774Z,11.03
2018-07-04T05:00:20.945Z,12.30
2018-07-04T05:03:01.087Z,12.77
2018-07-04T05:05:41.354Z,15.23
2018-07-04T05:08:21.599Z,10.97
2018-07-04T05:11:01.944Z,12.43
2018-07-04T05:13:42.313Z,10.47
2018-07-04T05:16:22.633Z,11.53
2018-07-04T05:19:02.931Z,10.98
2018-07-04T05:21:43.231Z,10.03
2018-07-04T05:24:23.510Z,8.87
2018-07-04T05:27:03.539Z,12.03
2018-07-04T05:29:43.673Z,9.70
2018-07-04T05:32:23.914Z,12.07
2018-07-04T05:35:04.113Z,8.65
2018-07-04T05:37:44.150Z,10.27
2018-07-04T05:40:24.413Z,9.70
2018-07-04T05:43:04.595Z,9.90
2018-07-04T05:45:44.903Z,9.80
2018-07-04T05:48:26.004Z,9.38
2018-07-04T05:51:06.289Z,8.58
2018-07-04T05:53:46.331Z,11.50
2018-07-04T05:56:26.565Z,8.87
2018-07-04T05:59:06.830Z,13.60
2018-07-04T06:01:46.953Z,13.38
2018-07-04T06:04:27.096Z,9.57
2018-07-04T06:07:07.244Z,9.35
2018-07-04T06:09:47.296Z,10.10
2018-07-04T06:12:27.584Z,8.97
2018-07-04T06:15:07.727Z,8.58
2018-07-04T06:17:48.820Z,10.83
2018-07-04T06:20:28.954Z,9.40
2018-07-04T06:23:09.251Z,9.03
2018-07-04T06:25:49.368Z,9.60
2018-07-04T06:28:29.659Z,10.37
2018-07-04T06:31:10.034Z,9.80
2018-07-04T06:33:51.235Z,11.95
2018-07-04T06:36:31.247Z,9.35
2018-07-04T06:38:59.131Z,9.23
2018-07-04T06:41:27.012Z,7.70
2018-07-04T06:43:54.886Z,8.40
2018-07-04T06:46:22.773Z,8.97
2018-07-04T06:48:50.718Z,9.57
2018-07-04T06:51:18.561Z,8.10
2018-07-04T06:53:46.559Z,7.80
2018-07-04T06:56:14.460Z,13.50
2018-07-04T06:58:42.350Z,7.78
2018-07-04T07:01:10.240Z,7.40
2018-07-04T07:03:50.507Z,7.73
2018-07-04T07:06:30.802Z,8.20
2018-07-04T07:09:11.045Z,10.00
2018-07-04T07:11:51.284Z,9.70
2018-07-04T07:14:31.554Z,8.37
2018-07-04T07:17:11.764Z,8.38
2018-07-04T07:19:52.110Z,8.70
2018-07-04T07:22:32.298Z,8.73
2018-07-04T07:25:12.512Z,7.08
2018-07-04T07:27:52.714Z,9.17
2018-07-04T07:30:32.880Z,10.10
2018-07-04T07:33:13.373Z,7.28
2018-07-04T07:35:53.506Z,7.10
2018-07-04T07:38:33.731Z,9.65
2018-07-04T07:41:13.857Z,9.53
2018-07-04T07:43:54.144Z,8.47
2018-07-04T07:46:34.501Z,7.90
2018-07-04T07:49:14.736Z,8.95
2018-07-04T07:51:54.852Z,9.90
2018-07-04T07:54:35.014Z,6.28
2018-07-04T07:57:15.176Z,9.63
2018-07-04T07:59:55.229Z,5.10
2018-07-04T08:02:35.514Z,10.93
2018-07-04T08:05:15.662Z,4.97
2018-07-04T08:07:55.720Z,5.43
2018-07-04T08:10:36.011Z,6.73
2018-07-04T08:13:16.270Z,4.42
2018-07-04T08:15:56.363Z,5.97
2018-07-04T08:18:36.470Z,5.63
2018-07-04T08:21:16.581Z,5.75
2018-07-04T08:23:56.802Z,7.50
2018-07-04T08:26:36.956Z,8.73
2018-07-04T08:29:17.062Z,7.65
2018-07-04T08:31:57.395Z,6.80
2018-07-04T08:34:37.504Z,6.70
2018-07-04T08:37:17.797Z,5.33
2018-07-04T08:39:57.802Z,4.20
2018-07-04T08:42:38.096Z,8.97
2018-07-04T08:45:18.340Z,6.22
2018-07-04T08:47:58.618Z,6.23
2018-07-04T08:50:38.939Z,4.37
2018-07-04T08:53:19.177Z,5.87
2018-07-04T08:55:59.352Z,4.47
2018-07-04T08:58:39.692Z,4.62
2018-07-04T09:01:19.841Z,5.13
2018-07-04T09:04:00.225Z,4.83
2018-07-04T09:06:40.363Z,4.28
2018-07-04T09:09:20.563Z,4.20
2018-07-04T09:12:00.742Z,4.50
2018-07-04T09:14:41.222Z,6.50
2018-07-04T09:17:21.414Z,6.10
2018-07-04T09:20:01.729Z,4.40
2018-07-04T09:22:41.745Z,7.40
2018-07-04T09:25:22.007Z,4.43
2018-07-04T09:28:02.288Z,4.50
2018-07-04T09:30:42.495Z,5.73
2018-07-04T09:33:22.717Z,7.17
2018-07-04T09:36:02.955Z,5.07
2018-07-04T09:38:43.255Z,6.30
2018-07-04T09:41:24.411Z,10.70
2018-07-04T09:44:04.669Z,4.77
2018-07-04T09:46:44.748Z,4.80
2018-07-04T09:49:25.112Z,5.97
2018-07-04T09:52:05.375Z,6.17
2018-07-04T09:54:45.605Z,6.23
2018-07-04T09:57:25.824Z,5.85
2018-07-04T10:00:06.030Z,5.90
2018-07-04T10:02:46.267Z,4.78
2018-07-04T10:05:26.452Z,4.03
2018-07-04T10:08:06.753Z,9.00
2018-07-04T10:10:46.947Z,6.20
2018-07-04T10:13:27.173Z,4.90
2018-07-04T10:16:07.464Z,4.27
2018-07-04T10:18:47.647Z,14.10
2018-07-04T10:21:27.994Z,5.83
2018-07-04T10:24:08.317Z,3.90
2018-07-04T10:26:48.617Z,8.43
2018-07-04T10:29:29.345Z,9.13
2018-07-04T10:32:10.830Z,5.00
2018-07-04T10:34:51.137Z,6.50
2018-07-04T10:37:31.696Z,14.40
2018-07-04T10:40:12.947Z,5.08
2018-07-04T10:42:53.162Z,4.00
2018-07-04T10:45:33.670Z,5.45
2018-07-04T10:48:13.989Z,4.33
2018-07-04T10:50:54.376Z,4.40
2018-07-04T10:53:34.583Z,3.90
2018-07-04T10:56:15.611Z,5.20
2018-07-04T10:58:55.903Z,4.93
2018-07-04T11:01:36.303Z,4.63
2018-07-04T11:04:16.587Z,4.80
2018-07-04T11:06:56.980Z,4.37
2018-07-04T11:09:37.547Z,5.50
2018-07-04T11:12:17.825Z,4.40
2018-07-04T11:14:58.834Z,8.20
2018-07-04T11:17:39.301Z,6.87
2018-07-04T11:20:20.581Z,6.30
2018-07-04T11:23:00.750Z,6.00
2018-07-04T11:25:40.897Z,5.60
2018-07-04T11:28:21.334Z,5.17
2018-07-04T11:31:01.608Z,3.90
2018-07-04T11:33:41.817Z,6.40
2018-07-04T11:36:22.119Z,4.10
2018-07-04T11:39:02.591Z,9.53
2018-07-04T11:41:42.729Z,4.40
2018-07-04T11:44:23.083Z,4.67
2018-07-04T11:46:51.053Z,6.27
2018-07-04T11:49:18.985Z,4.30
2018-07-04T11:51:48.745Z,6.33
2018-07-04T11:54:16.713Z,6.80
2018-07-04T11:56:44.943Z,4.80
2018-07-04T11:59:12.831Z,4.70
2018-07-04T12:01:40.822Z,4.43
2018-07-04T12:04:21.241Z,4.83
2018-07-04T12:07:01.348Z,4.60
2018-07-04T12:09:29.854Z,5.60
2018-07-04T12:11:58.059Z,7.00
2018-07-04T12:14:26.185Z,5.73
2018-07-04T12:16:54.087Z,5.70
2018-07-04T12:19:22.146Z,4.20
2018-07-04T12:21:50.074Z,6.53
2018-07-04T12:24:18.061Z,5.60
2018-07-04T12:26:46.074Z,5.23
2018-07-04T12:29:13.857Z,5.10
2018-07-04T12:31:47.315Z,5.50
2018-07-04T12:34:20.774Z,4.60
2018-07-04T12:36:54.167Z,5.60
2018-07-04T12:42:17.603Z,10.48
2018-07-04T12:44:46.684Z,24.00
2018-07-04T12:47:14.670Z,14.03
2018-07-04T12:49:42.627Z,8.23
2018-07-04T12:52:16.168Z,10.97
2018-07-04T12:54:51.360Z,8.60
2018-07-04T12:57:32.863Z,8.80
2018-07-04T13:00:13.114Z,7.00
2018-07-04T13:02:53.984Z,7.55
2018-07-04T13:05:35.651Z,10.20
2018-07-04T13:08:15.950Z,7.83
2018-07-04T13:11:00.320Z,10.03
2018-07-04T13:13:43.302Z,6.30
2018-07-04T13:16:24.808Z,7.35
2018-07-04T13:19:05.106Z,5.93
2018-07-04T13:21:46.862Z,10.07
2018-07-04T13:24:27.158Z,6.63
2018-07-04T13:27:08.094Z,6.60
2018-07-04T13:29:49.142Z,4.77
2018-07-04T13:32:30.166Z,6.07
2018-07-04T13:35:11.693Z,3.97
2018-07-04T13:37:52.559Z,4.25
2018-07-04T13:40:33.380Z,4.00
2018-07-04T13:43:15.387Z,4.30
2018-07-04T13:45:55.616Z,5.35
2018-07-04T13:48:36.819Z,5.60
2018-07-04T13:51:16.964Z,8.87
2018-07-04T13:53:57.376Z,9.23
2018-07-04T13:56:38.674Z,8.33
2018-07-04T13:59:19.927Z,9.23
2018-07-04T14:02:00.040Z,5.33
2018-07-04T14:04:40.238Z,6.83
2018-07-04T14:07:20.366Z,3.90
2018-07-04T14:10:00.621Z,3.83
2018-07-04T14:12:40.559Z,8.70
2018-07-04T14:15:20.668Z,3.75
2018-07-04T14:18:00.927Z,3.50
2018-07-04T14:20:41.116Z,5.13
2018-07-04T14:23:21.194Z,5.60
2018-07-04T14:26:01.193Z,5.53
2018-07-04T14:28:42.574Z,6.50
2018-07-04T14:31:22.832Z,5.83
2018-07-04T14:34:03.940Z,7.87
2018-07-04T14:36:46.219Z,6.17
2018-07-04T14:39:27.204Z,7.47
2018-07-04T14:42:08.699Z,8.57
2018-07-04T14:44:49.935Z,7.20
2018-07-04T14:47:30.075Z,5.87
2018-07-04T14:50:11.426Z,9.27
2018-07-04T14:52:52.597Z,5.92
2018-07-04T14:55:33.343Z,5.43
2018-07-04T14:58:14.964Z,4.80
2018-07-04T15:00:56.184Z,10.32
2018-07-04T15:03:37.735Z,6.93
2018-07-04T15:06:18.998Z,4.60
2018-07-04T15:09:00.506Z,3.90
2018-07-04T15:11:41.784Z,7.13
2018-07-04T15:14:23.179Z,4.97
2018-07-04T15:17:04.069Z,5.43
2018-07-04T15:19:44.801Z,4.23
2018-07-04T15:22:26.044Z,4.30
2018-07-04T15:25:07.413Z,9.33
2018-07-04T15:27:48.108Z,6.90
2018-07-04T15:30:29.533Z,6.87
2018-07-04T15:33:09.803Z,19.50
2018-07-04T15:35:50.173Z,11.20
2018-07-04T15:38:31.466Z,5.80
2018-07-04T15:41:13.026Z,4.80
2018-07-04T15:43:54.351Z,5.93
2018-07-04T15:46:35.390Z,3.77
2018-07-04T15:49:18.236Z,5.00
2018-07-04T15:51:59.641Z,5.55
2018-07-04T15:54:41.195Z,3.97
2018-07-04T15:57:22.567Z,3.53
2018-07-04T16:00:03.794Z,3.35
2018-07-04T16:02:45.743Z,3.90
2018-07-04T16:05:27.010Z,4.47
2018-07-04T16:11:18.417Z,6.07
2018-07-04T16:13:59.954Z,4.70
2018-07-04T16:16:41.355Z,3.40
2018-07-04T16:19:22.321Z,3.63
2018-07-04T16:22:03.118Z,3.45
2018-07-04T16:24:44.361Z,4.40
2018-07-04T16:27:26.113Z,3.67
2018-07-04T16:30:07.221Z,3.60
2018-07-04T16:32:48.115Z,3.50
2018-07-04T16:35:29.456Z,3.70
2018-07-04T16:38:10.580Z,4.13
2018-07-04T16:40:51.556Z,2.60
2018-07-04T16:43:32.846Z,4.13
2018-07-04T16:46:14.328Z,3.27
2018-07-04T16:48:55.338Z,4.00
2018-07-04T16:51:36.686Z,2.90
2018-07-04T16:54:17.913Z,3.77
2018-07-04T16:56:59.037Z,4.58
2018-07-04T16:59:40.020Z,2.93
2018-07-04T17:02:20.439Z,3.23
2018-07-04T17:05:01.822Z,4.33
2018-07-04T17:07:42.952Z,4.23
2018-07-04T17:10:24.165Z,4.15
2018-07-04T17:13:04.868Z,5.93
2018-07-04T17:15:47.059Z,4.40
2018-07-04T17:18:28.485Z,4.90
2018-07-04T17:21:09.150Z,3.77
2018-07-04T17:23:50.685Z,3.27
2018-07-04T17:26:31.857Z,6.92
2018-07-04T17:29:13.222Z,5.17
2018-07-04T17:31:53.988Z,2.72
2018-07-04T17:34:34.745Z,5.30
2018-07-04T17:37:15.317Z,3.07
2018-07-04T17:39:56.691Z,5.20
2018-07-04T17:42:38.014Z,2.80
2018-07-04T17:45:19.438Z,3.70
2018-07-04T17:48:00.853Z,3.13
2018-07-04T17:50:42.604Z,2.50
2018-07-04T17:53:24.075Z,4.10
2018-07-04T17:56:07.051Z,2.60
2018-07-04T17:58:47.748Z,4.93
2018-07-04T18:01:29.538Z,2.45
2018-07-04T18:04:11.213Z,3.23
2018-07-04T18:06:52.380Z,3.40
2018-07-04T18:09:33.428Z,2.20
2018-07-04T18:12:14.757Z,2.73
2018-07-04T18:14:56.191Z,2.80
2018-07-04T18:17:37.732Z,2.40
2018-07-04T18:20:18.673Z,8.37
2018-07-04T18:23:00.084Z,4.27
2018-07-04T18:25:41.467Z,5.40
2018-07-04T18:28:22.439Z,3.23
2018-07-04T18:31:03.904Z,5.03
2018-07-04T18:33:45.113Z,5.83
2018-07-04T18:36:26.492Z,4.20
2018-07-04T18:39:07.577Z,4.67
2018-07-04T18:41:48.507Z,5.00
2018-07-04T18:44:29.791Z,5.35
2018-07-04T18:47:10.749Z,6.97
2018-07-04T18:49:51.882Z,6.80
2018-07-04T18:52:33.125Z,4.92
2018-07-04T18:55:13.787Z,4.97
2018-07-04T18:57:55.184Z,4.78
2018-07-04T19:00:36.463Z,5.58
2018-07-04T19:03:17.573Z,6.47
2018-07-04T19:05:58.483Z,5.00
2018-07-04T19:08:39.794Z,6.30
2018-07-04T19:11:20.510Z,5.10
2018-07-04T19:14:01.876Z,5.12
2018-07-04T19:16:43.121Z,6.83
2018-07-04T19:19:24.514Z,4.63
2018-07-04T19:22:05.872Z,7.40
2018-07-04T19:24:47.447Z,4.87
2018-07-04T19:27:28.792Z,5.00
2018-07-04T19:30:09.635Z,11.50
2018-07-04T19:32:51.419Z,9.83
2018-07-04T19:35:32.809Z,4.27
2018-07-04T19:38:14.172Z,4.73
2018-07-04T19:40:55.761Z,5.25
2018-07-04T19:43:36.661Z,16.87
2018-07-04T19:46:18.467Z,8.90
2018-07-04T19:48:59.411Z,8.27
2018-07-04T19:51:40.470Z,11.93
2018-07-04T19:54:21.694Z,6.13
2018-07-04T19:57:03.257Z,7.03
2018-07-04T19:59:44.162Z,8.13
2018-07-04T20:02:25.412Z,22.00
2018-07-04T20:05:06.926Z,19.53
2018-07-04T20:07:47.946Z,10.90
2018-07-04T20:10:29.197Z,9.47
2018-07-04T20:13:10.562Z,8.20
2018-07-04T20:15:51.550Z,9.57
2018-07-04T20:18:32.610Z,13.73
2018-07-04T20:21:13.590Z,16.10
2018-07-04T20:23:54.625Z,9.33
2018-07-04T20:26:36.008Z,13.77
2018-07-04T20:29:16.973Z,12.43
2018-07-04T20:31:58.310Z,13.40
2018-07-04T20:34:39.081Z,9.97
2018-07-04T20:37:20.240Z,10.00
2018-07-04T20:40:00.954Z,11.80
2018-07-04T20:42:41.785Z,9.20
2018-07-04T20:45:23.087Z,7.70
2018-07-04T20:48:04.627Z,11.08
2018-07-04T20:50:46.012Z,10.73
2018-07-04T20:53:27.229Z,7.30
2018-07-04T20:56:07.921Z,9.67
2018-07-04T20:58:49.204Z,12.00
2018-07-04T21:01:30.738Z,9.33
2018-07-04T21:04:12.109Z,15.30
2018-07-04T21:06:53.123Z,10.70
2018-07-04T21:09:34.726Z,13.83
2018-07-04T21:12:15.868Z,12.27
2018-07-04T21:14:56.793Z,8.20
2018-07-04T21:17:37.673Z,5.73
2018-07-04T21:20:19.190Z,5.83
2018-07-04T21:23:00.466Z,6.80
2018-07-04T21:25:41.966Z,8.13
2018-07-04T21:28:22.936Z,14.80
2018-07-04T21:31:04.154Z,11.13
2018-07-04T21:33:44.832Z,11.90
2018-07-04T21:36:26.152Z,10.53
2018-07-04T21:39:07.540Z,16.57
2018-07-04T21:41:49.054Z,10.23
2018-07-04T21:44:30.029Z,7.78
2018-07-04T21:47:11.413Z,15.73
2018-07-04T21:49:52.793Z,7.80
2018-07-04T21:52:34.035Z,15.35
2018-07-04T21:55:15.402Z,11.83
2018-07-04T21:57:56.545Z,10.20
2018-07-04T22:00:37.502Z,10.57
2018-07-04T22:03:18.450Z,14.33
2018-07-04T22:05:59.878Z,9.63
2018-07-04T22:08:40.585Z,13.83
2018-07-04T22:11:21.823Z,10.77
2018-07-04T22:14:03.029Z,10.40
2018-07-04T22:16:44.496Z,8.40
2018-07-04T22:19:25.821Z,13.48
2018-07-04T22:22:06.655Z,9.13
2018-07-04T22:24:47.519Z,12.00
2018-07-04T22:27:28.495Z,12.10
2018-07-04T22:30:09.663Z,23.20
2018-07-04T22:32:51.255Z,13.83
2018-07-04T22:35:32.482Z,12.47
2018-07-04T22:38:13.515Z,13.00
2018-07-04T22:40:54.891Z,8.60
2018-07-04T22:43:35.812Z,8.80
2018-07-04T22:46:16.846Z,11.20
2018-07-04T22:48:57.926Z,14.93
2018-07-04T22:51:38.838Z,8.43
2018-07-04T22:54:21.370Z,7.22
2018-07-04T22:57:02.851Z,10.37
2018-07-04T22:59:43.876Z,7.33
2018-07-04T23:02:25.155Z,14.33
2018-07-04T23:05:06.071Z,8.97
2018-07-04T23:07:47.223Z,11.50
2018-07-04T23:10:28.453Z,10.03
2018-07-04T23:13:09.406Z,13.20
2018-07-04T23:15:51.205Z,17.30
2018-07-04T23:18:32.349Z,10.23
2018-07-04T23:21:13.726Z,10.87
2018-07-04T23:23:54.984Z,7.70
2018-07-04T23:26:36.336Z,11.35
2018-07-04T23:29:17.474Z,10.20
2018-07-04T23:31:59.272Z,17.77
2018-07-04T23:34:40.062Z,11.53
2018-07-04T23:37:21.125Z,8.23
2018-07-04T23:40:02.613Z,18.48
2018-07-04T23:42:43.907Z,10.23
2018-07-04T23:45:25.257Z,10.00
2018-07-04T23:48:06.245Z,7.20
2018-07-04T23:50:47.329Z,11.80
2018-07-04T23:53:28.638Z,8.35
2018-07-04T23:56:09.977Z,16.43
2018-07-04T23:58:52.304Z,27.57
